Weather observations for the past three days for
Albert Lea, Albert Lea Municipal Airport
Imperial (Metric)
Date Time (cdt) Wind (mph) Vis. (mi.) Weather Sky Cond. Temperature (ºF) Relative Humidity Wind Chill (°F) Heat Index (°F) Pressure Precipitation (in)
Air Dwpt 6 hour altimeter (in) sea level (mb) 1 hr 3 hr 6 hr
Max. Min.
04 00:35 S 5 10.00 Mostly Cloudy BKN060 75.7 72.5 90% 76 29.85 0.0
04 00:15 S 5 10.00 A Few Clouds FEW160 75.7 72.7 90% 75 29.84 0.0
03 23:55 S 6 10.00 Mostly Cloudy SCT065 BKN160 75.6 72.9 91% 75 29.84 0.0
03 23:35 S 7 10.00 Mostly Cloudy FEW065 BKN160 75.2 72.9 92% 74 29.84 0.0
03 23:15 SE 5 10.00 A Few Clouds FEW160 76.1 73 90% 76 29.85 0.0
03 22:55 S 7 10.00 Fair CLR 76.6 72.9 88% 78 29.84 0.0
03 22:35 S 7 10.00 Fair CLR 76.8 72.9 88% 78 29.85 0.0
03 22:15 S 7 10.00 Fair CLR 77.2 72.7 86% 79 29.85 0.0
03 21:55 S 7 10.00 Partly Cloudy SCT120 76.8 72.9 88% 78 29.85 0.0
03 21:35 SE 6 10.00 Mostly Cloudy BKN120 77.4 72.9 86% 79 29.85 0.0
03 21:15 SE 6 10.00 Overcast OVC120 78.1 72.9 84% 81 29.84 0.0
03 20:55 SE 7 10.00 Overcast OVC120 78.4 73.2 84% 81 29.83 0.0
03 20:35 SE 10 10.00 Mostly Cloudy BKN120 79.5 72.9 80% 83 29.83 0.0
03 20:15 SE 7 10.00 Mostly Cloudy SCT110 BKN130 BKN160 80.2 72.5 77% 84 29.83 0.0
03 19:55 SE 6 9.00 Overcast BKN120 OVC160 81 72.5 76% 86 29.83 0.0
03 19:35 S 6 9.00 Mostly Cloudy BKN120 BKN170 81.7 72.5 74% 87 29.83 0.0
03 19:15 S 7 9.00 Partly Cloudy SCT110 SCT130 SCT180 82.4 72 71% 87 29.82 0.0
03 18:55 S 5 9.00 A Few Clouds FEW110 83.3 71.6 87.8 80.6 68% 88 29.82 0.0
03 18:35 S 6 9.00 Fair CLR 82.9 70.7 67% 87 29.82 0.0
03 18:15 S 8 9.00 Fair CLR 83.5 70.3 65% 88 29.81 0.0
03 17:55 S 10 G 21 10.00 Fair CLR 86 70.2 59% 91 29.81 0.0
03 17:35 SW 14 G 18 10.00 Fair CLR 86.9 70 57% 92 29.81 0.0
03 17:15 S 9 10.00 A Few Clouds FEW170 86.9 70.3 58% 92 29.8 0.0
03 16:55 S 6 10.00 A Few Clouds FEW140 85.6 70 60% 90 29.82 0.0
03 16:35 S 13 10.00 Partly Cloudy FEW140 SCT170 87.1 69.4 56% 92 29.82 0.0
03 16:15 S 12 10.00 A Few Clouds FEW160 87.4 69.4 55% 92 29.81 0.0
03 15:55 S 12 G 18 10.00 Fair CLR 86.5 69.4 57% 91 29.81 0.0
03 15:35 S 15 G 18 10.00 Fair CLR 85.8 70 59% 90 29.8 0.0
03 15:15 S 16 10.00 A Few Clouds FEW190 84.4 69.4 61% 88 29.8 0.0
03 14:55 S 17 G 21 10.00 Fair CLR 84.7 68.7 59% 88 29.82 0.0
03 14:35 S 12 G 26 10.00 Fair CLR 84.4 68.4 59% 88 29.81 0.0
03 14:15 S 13 G 25 10.00 Fair CLR 82.8 68 61% 86 29.82 0.0
03 13:55 S 14 G 22 10.00 Fair CLR 82.4 68.4 63% 86 29.83 0.0
03 13:35 S 15 G 22 10.00 A Few Clouds FEW170 81.9 68.5 64% 85 29.84 0.0
03 13:15 S 13 10.00 Mostly Cloudy BKN170 BKN190 81.3 68.2 64% 84 29.83 0.0
03 12:55 S 13 G 23 10.00 Partly Cloudy FEW190 SCT210 78.4 67.6 80.1 69.1 70% 81 29.83 0.0 0.06
03 12:35 S 18 10.00 Partly Cloudy FEW180 SCT210 77.7 67.1 70% 80 29.82 0.0
03 12:15 S 15 10.00 Partly Cloudy FEW180 SCT250 77.9 67.6 71% 80 29.83 0.0
03 11:55 S 13 G 21 10.00 A Few Clouds FEW260 78.1 67.3 70% 80 29.86 0.0
03 11:35 S 15 G 18 10.00 A Few Clouds FEW110 77.7 66.9 69% 80 29.87 0.0
03 11:15 S 15 G 23 10.00 A Few Clouds FEW110 77 66.7 71% 79 29.88 0.0
03 10:55 S 17 G 24 10.00 Fair CLR 76.6 67.3 73% 78 29.87 0.0
03 10:35 S 17 10.00 A Few Clouds FEW170 76.3 67.3 74% 78 29.87 0.0
03 10:15 S 15 G 21 10.00 Mostly Cloudy BKN170 74.7 67.6 79% 29.87 0.0
03 09:55 S 14 10.00 Mostly Cloudy FEW130 BKN180 72 67.8 87% 29.87 0.0 0.06
03 09:35 SE 10 8.00 Mostly Cloudy SCT110 BKN130 BKN180 70.7 67.6 90% 29.87 0.0
03 09:15 SE 12 9.00 Overcast FEW070 OVC110 70.9 67.5 89% 29.88 0.0
03 08:55 SE 6 2.00 Thunderstorm Light Rain Fog/Mist FEW070 OVC100 70.9 68 91% 29.9 0.0 0.03
03 08:35 Calm 9.00 Thunderstorm in Vicinity OVC100 71.6 67.3 86% 29.9 0.0
03 08:15 SE 12 9.00 Thunderstorm in Vicinity BKN100 70.9 67.3 88% 29.87 0.0
03 07:55 SE 9 8.00 Overcast OVC100 69.4 67.1 92% 29.89 0.0 0.03
03 07:35 SE 10 8.00 Light Rain OVC100 69.4 66.6 91% 29.87 0.0 0.03
03 07:15 S 10 9.00 Thunderstorm in Vicinity OVC100 69.1 66.7 92% 29.88 0.0 0.03
03 06:55 E 7 9.00 Light Rain BKN090 OVC120 69.4 66 76.5 68.9 89% 29.88 0.0 0.1 0.4
03 06:35 SE 9 3.00 Thunderstorm Light Rain Fog/Mist BKN085 OVC110 69.1 66.6 92% 29.91 0.0 0.1
03 06:15 S 13 8.00 Light Rain Thunderstorm in Vicinity BKN095 OVC120 69.6 66.2 89% 29.9 0.0 0.01
03 05:55 S 12 G 18 9.00 Light Rain Thunderstorm in Vicinity FEW100 OVC120 72.3 64.8 77% 29.91 0.0
03 05:35 W 6 9.00 Thunderstorm OVC120 71.4 66.7 85% 29.91 0.0
03 05:15 S 6 9.00 Light Rain FEW080 OVC120 70.3 67.6 91% 29.9 0.0
03 04:55 W 5 6.00 Light Rain Fog/Mist Thunderstorm in Vicinity BKN090 OVC120 70.2 67.5 91% 29.92 0.0 0.16
03 04:35 S 12 8.00 Thunderstorm Light Rain BKN090 OVC120 70.5 66.7 88% 29.91 0.0 0.15
03 04:15 W 13 G 22 5.00 Light Rain Fog/Mist Thunderstorm in Vicinity OVC090 70.9 67.5 89% 29.94 0.0 0.14
03 03:55 S 9 5.00 Light Rain Thunderstorm in Vicinity BKN080 OVC095 73 66 79% 29.87 0.0 0.14 0.14
03 03:35 SW 13 5.00 Rain Thunderstorm in Vicinity OVC090 74.8 66.9 76% 29.86 0.0 0.06
03 03:15 S 9 10.00 Thunderstorm in Vicinity SCT100 BKN120 BKN230 OVC260 75.4 68 78% 76 29.85 0.0
03 02:55 S 7 9.00 Partly Cloudy FEW110 SCT260 SCT280 72.9 70.2 91% 29.86 0.0
03 02:35 S 6 9.00 Mostly Cloudy SCT110 BKN290 72.7 70.2 92% 29.86 0.0
03 02:15 S 6 10.00 Fair CLR 72.7 70.2 92% 29.85 0.0
03 01:55 S 7 10.00 Fair CLR 72.9 70.2 91% 29.86 0.0
03 01:35 S 6 10.00 Fair CLR 72.9 70.2 91% 29.85 0.0
03 01:15 S 5 9.00 Fair CLR 70.9 69.3 95% 29.86 0.0
03 00:55 SE 5 10.00 A Few Clouds FEW150 72.5 69.6 82.6 72.5 91% 29.86 0.0
03 00:35 SE 3 9.00 Mostly Cloudy SCT150 BKN180 72.7 69.8 91% 29.86 0.0
03 00:15 SE 5 10.00 Overcast SCT150 OVC170 73.2 70 90% 29.86 0.0
02 23:55 Calm 10.00 Mostly Cloudy SCT150 BKN170 73.4 69.8 89% 29.87 0.0
02 23:35 E 3 10.00 Partly Cloudy SCT150 73.6 70 89% 29.87 0.0
02 23:15 SE 3 10.00 Fair CLR 73.6 70 89% 29.87 0.0
02 22:55 Calm 9.00 Fair CLR 74.1 70.3 88% 29.87 0.0
02 22:35 SE 3 10.00 Fair CLR 74.3 70.5 88% 29.87 0.0
02 22:15 SE 3 9.00 Fair CLR 74.7 70.7 88% 29.87 0.0
02 21:55 SE 5 10.00 Fair CLR 75.9 70.5 83% 77 29.87 0.0
02 21:35 SE 6 10.00 Fair CLR 76.8 70.3 80% 78 29.87 0.0
02 21:15 SE 8 10.00 Fair CLR 77.2 70.5 80% 79 29.87 0.0
02 20:55 SE 6 10.00 Fair CLR 77.2 71.6 83% 79 29.87 0.0
02 20:35 SE 7 10.00 Fair CLR 77.5 72 83% 79 29.86 0.0
02 20:15 SE 7 9.00 Fair CLR 78.8 71.8 79% 82 29.86 0.0
02 19:55 SE 6 9.00 Fair CLR 79.2 71.8 78% 82 29.86 0.0
02 19:35 S 6 9.00 Fair CLR 80.6 71.4 74% 85 29.86 0.0
02 19:15 S 7 9.00 Fair CLR 81.9 71.1 70% 86 29.86 0.0
02 18:55 S 6 9.00 Fair CLR 83.1 70.5 88 83.1 66% 88 29.86 0.0
02 18:35 S 10 10.00 Fair CLR 83.8 70 63% 88 29.86 0.0
02 18:15 S 10 10.00 Fair CLR 84.6 69.1 60% 88 29.86 0.0
02 17:55 S 10 10.00 Fair CLR 85.5 68.2 56% 89 29.86 0.0
02 17:35 S 13 10.00 Fair CLR 85.6 67.5 55% 89 29.87 0.0
02 17:15 S 12 10.00 Fair CLR 86.4 67.3 53% 89 29.87 0.0
02 16:55 S 8 10.00 Fair CLR 86.5 68.7 55% 90 29.87 0.0
02 16:35 S 10 10.00 Fair CLR 87.1 69.1 55% 91 29.87 0.0
02 16:15 S 8 10.00 Fair CLR 87.1 68.2 53% 91 29.87 0.0
02 15:55 S 7 10.00 Fair CLR 87.3 67.8 53% 91 29.88 0.0
02 15:35 S 7 10.00 Fair CLR 87.3 67.5 52% 90 29.88 0.0
02 15:15 SW 5 10.00 Fair CLR 87.4 68.2 53% 91 29.88 0.0
02 14:55 Vrbl 6 10.00 Fair CLR 87.8 66.9 50% 91 29.89 0.0
02 14:35 SW 7 10.00 Fair CLR 87.1 67.5 52% 90 29.89 0.0
02 14:15 Vrbl 6 9.00 Fair CLR 87.3 67.1 51% 90 29.89 0.0
02 13:55 Vrbl 5 9.00 Fair CLR 86.4 68 54% 90 29.9 0.0
02 13:35 SW 8 10.00 Fair CLR 86.5 67.5 53% 90 29.91 0.0
02 13:15 SW 8 10.00 Fair CLR 85.8 67.3 54% 89 29.9 0.0
02 12:55 SW 7 10.00 A Few Clouds FEW070 84.2 67.1 85.1 64.2 57% 87 29.91 0.0
02 12:35 SW 6 10.00 A Few Clouds FEW310 85.1 67.8 56% 88 29.91 0.0
02 12:15 S 6 9.00 Fair CLR 83.7 68.4 60% 87 29.92 0.0
02 11:55 Vrbl 5 10.00 Fair CLR 82 68.5 64% 85 29.92 0.0
02 11:35 SW 6 9.00 Fair CLR 81.1 68.7 66% 84 29.93 0.0
02 11:15 S 9 10.00 Fair CLR 79.9 67.3 66% 82 29.93 0.0
02 10:55 S 9 10.00 Fair CLR 78.8 67.5 68% 81 29.92 0.0
02 10:35 S 12 10.00 Fair CLR 77.4 66.6 69% 79 29.92 0.0
02 10:15 S 9 10.00 Fair CLR 76.3 67.1 73% 78 29.91 0.0
02 09:55 SE 10 10.00 Fair CLR 73.2 66.2 79% 29.91 0.0
02 09:35 SE 7 10.00 Fair CLR 72 66 82% 29.91 0.0
02 09:15 SE 5 9.00 Fair CLR 70.3 65.7 85% 29.92 0.0
02 08:55 SE 7 10.00 Fair CLR 68.4 65.1 89% 29.92 0.0
02 08:35 SE 7 9.00 Fair CLR 67.6 64.8 91% 29.91 0.0
02 08:15 SE 6 10.00 Fair CLR 66.4 64 92% 29.91 0.0
02 07:55 SE 5 9.00 A Few Clouds FEW300 66 64.4 95% 29.91 0.0
02 07:35 E 3 9.00 A Few Clouds FEW300 66.2 64.2 93% 29.91 0.0
02 07:15 SE 3 9.00 A Few Clouds FEW310 65.3 64 96% 29.92 0.0
02 06:55 SE 3 9.00 Fair CLR 64.4 63.3 67.6 64.4 96% 29.92 0.0 0.41
02 06:35 Calm 9.00 Fair CLR 64.8 63.3 95% 29.92 0.0
02 06:15 Calm 10.00 A Few Clouds FEW270 65.7 63.7 93% 29.91 0.0
02 05:55 E 8 10.00 Fair CLR 66 64 93% 29.9 0.0
02 05:35 E 8 10.00 Fair CLR 66.2 64.6 95% 29.9 0.0
02 05:15 E 9 10.00 A Few Clouds FEW190 66.2 64.9 96% 29.9 0.0
02 04:55 NE 6 7.00 Light Rain BKN090 BKN120 OVC190 67.1 65.1 93% 29.94 0.0 0.03
02 04:15 S 12 G 23 8.00 Thunderstorm Light Rain FEW008 SCT018 SCT050 BKN090 BKN140 BKN180 67.1 64.9 93% 29.98 0.0
02 03:55 SE 5 9.00 Thunderstorm in Vicinity SCT140 66.7 64.4 92% 29.93 0.0 0.38
02 03:35 SE 8 9.00 Light Rain BKN130 BKN150 66.9 64.6 92% 29.92 0.0
02 03:15 E 7 10.00 Mostly Cloudy BKN130 67.1 65.3 94% 29.92 0.0
02 02:55 E 10 10.00 Partly Cloudy SCT130 67.1 65.7 95% 29.9 0.0 0.01
02 02:35 E 10 10.00 Overcast BKN120 BKN140 OVC170 67.3 65.8 95% 29.91 0.0 0.01
02 02:15 E 9 10.00 Mostly Cloudy SCT110 BKN140 BKN170 67.5 66.2 96% 29.92 0.0
02 01:55 NE 8 10.00 Mostly Cloudy FEW026 BKN120 BKN200 67.3 65.8 95% 29.93 0.0 0.37
02 01:35 N 10 4.00 Light Rain Fog/Mist Thunderstorm in Vicinity SCT047 BKN110 BKN210 67.1 65.7 95% 29.94 0.0 0.37
02 01:15 NW 17 G 35 1.00 Thunderstorm Heavy Rain Fog/Mist OVC041 67.3 65.5 94% 29.95 0.0 0.34
02 00:55 NW 17 G 32 10.00 Thunderstorm FEW015 BKN038 OVC060 69.6 64.6 77.9 69.6 84% 29.99 0.0 0.02
02 00:35 NW 13 G 21 10.00 Thunderstorm in Vicinity BKN060 BKN080 72.7 65.8 79% 29.94 0.0
02 00:15 E 6 10.00 Thunderstorm in Vicinity SCT080 73.6 65.1 75% 29.87 0.0
01 23:55 E 6 10.00 Overcast SCT065 BKN080 OVC120 72.7 65.8 79% 29.89 0.0
01 23:35 E 3 10.00 Overcast BKN065 OVC120 72 66 82% 29.9 0.0
01 23:15 NE 5 10.00 Overcast OVC065 71.2 65.8 83% 29.91 0.0
01 22:55 NE 5 10.00 Partly Cloudy FEW110 SCT360 70.7 66.6 87% 29.91 0.0
01 22:35 E 5 10.00 Mostly Cloudy BKN110 70.7 66.7 87% 29.91 0.0
01 22:15 N 5 10.00 Thunderstorm in Vicinity BKN110 BKN150 70.2 67.5 91% 29.92 0.0
01 21:55 NE 5 10.00 Mostly Cloudy FEW065 BKN110 71.6 65.8 82% 29.92 0.0 0.02 0.02
01 21:35 NE 5 7.00 Light Rain FEW060 BKN110 OVC130 71.2 66.2 84% 29.92 0.0 0.02
01 21:15 E 5 9.00 Overcast FEW029 OVC100 72.5 65.8 80% 29.92 0.0
01 20:55 NE 5 9.00 Mostly Cloudy BKN110 72.1 66 81% 29.92 0.0
01 20:35 Calm 10.00 A Few Clouds FEW110 72 66.7 84% 29.92 0.0
01 20:15 NE 3 10.00 Fair CLR 72.9 66.7 81% 29.92 0.0
01 19:55 NE 6 10.00 Mostly Cloudy BKN110 74.8 67.6 78% 29.91 0.0
01 19:35 NE 6 10.00 Overcast OVC110 75.7 70.3 83% 76 29.92 0.0
01 19:15 NE 5 10.00 Mostly Cloudy BKN110 76.8 71.2 83% 78 29.92 0.0
01 18:55 N 3 10.00 Overcast OVC110 77.7 72.1 87.8 75.9 83% 80 29.93 0.0 0.02
01 18:35 N 5 10.00 Mostly Cloudy SCT110 BKN170 77.9 71.2 80% 80 29.93 0.0
01 18:15 Calm 10.00 Mostly Cloudy SCT110 BKN170 79.3 70.5 75% 82 29.92 0.0
01 17:55 E 3 9.00 Mostly Cloudy BKN110 BKN130 BKN150 79.2 71.4 77% 82 29.92 0.0
01 17:35 NE 5 10.00 Mostly Cloudy BKN120 BKN140 BKN280 78.6 72 80% 81 29.93 0.0
01 17:15 E 3 9.00 Mostly Cloudy FEW090 BKN110 BKN130 79 72.5 81% 82 29.92 0.0
01 16:55 Calm 9.00 Mostly Cloudy FEW049 SCT065 BKN110 BKN130 BKN190 77.7 73.6 87% 80 29.92 0.0 0.02
01 16:35 NW 6 7.00 Light Rain SCT044 BKN110 BKN130 BKN190 OVC210 76.1 72.3 88% 76 29.93 0.0 0.02
01 16:15 W 7 8.00 Light Rain BKN110 81.1 65.8 60% 83 29.98 0.0
01 15:55 SE 8 10.00 Overcast OVC110 85.1 62.4 47% 86 29.93 0.0
01 15:35 E 5 10.00 Mostly Cloudy BKN110 84.4 66 54% 87 29.93 0.0
01 15:15 SE 7 10.00 Mostly Cloudy FEW110 SCT170 BKN200 85.3 64.9 51% 87 29.94 0.0
01 14:55 SE 9 10.00 Mostly Cloudy FEW130 SCT150 SCT180 BKN200 87.4 62.8 44% 88 29.93 0.0
01 14:35 Vrbl 3 10.00 Mostly Cloudy SCT130 SCT150 BKN170 86.5 63.3 46% 88 29.95 0.0
01 14:15 SE 5 10.00 Fair CLR 86.7 64.4 47% 88 29.95 0.0
01 13:55 NE 7 10.00 Mostly Cloudy SCT180 BKN220 BKN250 86.7 64.2 47% 88 29.95 0.0
01 13:35 E 6 10.00 Overcast BKN180 OVC220 85.5 63 47% 86 29.95 0.0
01 13:15 SE 6 10.00 Overcast FEW150 BKN190 OVC210 85.1 65.8 53% 87 29.97 0.0
01 12:55 Calm 10.00 Overcast SCT160 OVC210 0 0 0% 29.98 0.0
01 12:40 N 5 10.00 Overcast SCT160 OVC200 84.9 64.2 50% 86 29.98 0.0
01 12:15 Vrbl 5 10.00 Mostly Cloudy BKN160 BKN210 0 0 0% 29.98 0.0
01 11:55 NE 3 10.00 Partly Cloudy SCT220 0 0 0% 29.98 0.0
01 11:35 Vrbl 3 10.00 A Few Clouds FEW320 0 0 0% 29.98 0.0
01 11:15 NW 3 10.00 A Few Clouds FEW260 0 0 0% 29.98 0.0
01 10:55 W 3 10.00 A Few Clouds FEW260 0 0 0% 29.98 0.0
01 10:35 SW 3 10.00 A Few Clouds FEW180 0 0 0% 29.98 0.0
01 10:15 Calm 10.00 A Few Clouds FEW270 0 0 0% 29.98 0.0
01 09:55 Calm 10.00 Mostly Cloudy BKN250 BKN270 0 0 0% 29.98 0.0
01 09:35 Calm 10.00 Partly Cloudy SCT250 0 0 0% 29.98 0.0
01 09:15 S 3 10.00 Partly Cloudy SCT240 0 0 0% 29.98 0.0
01 08:55 SW 3 10.00 Mostly Cloudy BKN240 0 0 0% 29.99 0.0
01 08:35 S 3 10.00 Overcast OVC240 0 0 0% 29.98 0.0
01 08:15 Calm 9.00 Overcast OVC240 0 0 0% 29.99 0.0
01 07:55 Calm 10.00 Mostly Cloudy BKN240 0 0 0% 29.98 0.0
01 07:35 Calm 9.00 Partly Cloudy SCT250 0 0 0% 29.98 0.0
01 07:15 Calm 9.00 Mostly Cloudy BKN240 0 0 0% 29.98 0.0
01 06:55 Calm 9.00 Overcast OVC230 0 0 0% 29.97 0.0
01 06:35 Calm 9.00 Overcast OVC230 0 0 0% 29.97 0.0
01 06:15 Calm 9.00 Overcast OVC250 0 0 0% 29.96 0.0
01 05:55 Calm 9.00 Fair CLR 0 0 0% 29.96 0.0
01 05:35 Calm 10.00 Fair CLR 0 0 0% 29.95 0.0
01 05:23 Calm 10.00 Fair CLR 0 0 0% 29.95 0.0
01 05:15 Calm 10.00 A Few Clouds FEW120 0 0 0% 29.95 0.0
01 04:55 Calm 10.00 Partly Cloudy SCT120 0 0 0% 29.95 0.0
01 04:35 Calm 9.00 A Few Clouds FEW110 0 0 0% 29.96 0.0
01 04:15 Calm 2.50 Fog/Mist CLR 0 0 0% 29.95 0.0
01 03:55 Calm 8.00 A Few Clouds FEW130 0 0 0% 29.95 0.0
01 03:35 Calm 5.00 Partly Cloudy with Haze SCT130 0 0 0% 29.95 0.0
01 03:15 S 3 9.00 Mostly Cloudy BKN130 0 0 0% 29.95 0.0
01 02:55 Calm 8.00 A Few Clouds FEW130 0 0 0% 29.95 0.0
01 02:35 Calm 10.00 A Few Clouds FEW130 0 0 0% 29.95 0.0
01 02:15 Calm 10.00 A Few Clouds FEW130 0 0 0% 29.96 0.0
01 01:55 Calm 10.00 A Few Clouds FEW110 0 0 0% 29.96 0.0
01 01:35 Calm 10.00 A Few Clouds FEW120 0 0 0% 29.96 0.0
01 01:15 Calm 10.00 Mostly Cloudy BKN120 0 0 0% 29.97 0.0
01 00:55 Calm 10.00 Overcast OVC120 0 0 0% 29.96 0.0
Date Time (cdt) Wind (mph) Vis. (mi.) Weather Sky Cond. Air Dwpt Max. Min. Relative Humidity Wind Chill (°F) Heat Index (°F) altimeter (in) sea level (mb) 1 hr 3 hr 6 hr
6 hour
Temperature (ºF) Pressure Precipitation (in)